createdAt,value
2018-06-27T00:00:09.385Z,14.57
2018-06-27T00:02:38.594Z,14.60
2018-06-27T00:05:07.792Z,14.51
2018-06-27T00:07:36.957Z,14.40
2018-06-27T00:10:06.132Z,14.43
2018-06-27T00:12:35.297Z,14.26
2018-06-27T00:15:04.469Z,14.11
2018-06-27T00:17:33.634Z,14.14
2018-06-27T00:20:02.803Z,14.16
2018-06-27T00:22:31.967Z,14.23
2018-06-27T00:25:01.145Z,14.49
2018-06-27T00:27:30.312Z,14.69
2018-06-27T00:29:59.483Z,14.64
2018-06-27T00:32:28.641Z,14.66
2018-06-27T00:34:57.810Z,14.68
2018-06-27T00:37:26.959Z,14.52
2018-06-27T00:39:56.138Z,14.52
2018-06-27T00:42:25.318Z,14.51
2018-06-27T00:44:54.486Z,14.53
2018-06-27T00:47:23.656Z,14.43
2018-06-27T00:49:52.835Z,14.38
2018-06-27T00:52:21.985Z,14.33
2018-06-27T00:54:51.158Z,14.25
2018-06-27T00:57:20.317Z,14.24
2018-06-27T00:59:49.483Z,14.28
2018-06-27T01:02:18.646Z,14.32
2018-06-27T01:04:47.958Z,14.32
2018-06-27T01:07:17.142Z,14.30
2018-06-27T01:09:46.336Z,14.31
2018-06-27T01:12:15.536Z,14.26
2018-06-27T01:14:44.733Z,14.26
2018-06-27T01:17:13.921Z,14.27
2018-06-27T01:19:43.123Z,14.28
2018-06-27T01:22:12.324Z,14.28
2018-06-27T01:24:41.497Z,14.47
2018-06-27T01:27:10.704Z,14.61
2018-06-27T01:29:39.907Z,14.72
2018-06-27T01:32:09.141Z,14.82
2018-06-27T01:34:38.340Z,14.85
2018-06-27T01:37:07.539Z,14.85
2018-06-27T01:39:36.725Z,14.92
2018-06-27T01:42:05.923Z,15.00
2018-06-27T01:44:35.118Z,15.13
2018-06-27T01:47:04.320Z,15.10
2018-06-27T01:49:33.511Z,15.01
2018-06-27T01:52:02.717Z,14.90
2018-06-27T01:54:31.910Z,14.99
2018-06-27T01:57:01.111Z,14.93
2018-06-27T01:59:30.286Z,14.95
2018-06-27T02:01:59.492Z,14.82
2018-06-27T02:04:28.685Z,14.94
2018-06-27T02:06:57.855Z,14.82
2018-06-27T02:09:27.038Z,14.73
2018-06-27T02:11:56.218Z,14.67
2018-06-27T02:14:25.383Z,14.81
2018-06-27T02:16:54.642Z,14.74
2018-06-27T02:19:23.799Z,14.67
2018-06-27T02:21:52.974Z,14.63
2018-06-27T02:24:22.136Z,14.64
2018-06-27T02:26:51.317Z,14.70
2018-06-27T02:29:20.480Z,14.64
2018-06-27T02:31:49.640Z,14.66
2018-06-27T02:34:18.815Z,14.66
2018-06-27T02:36:47.989Z,14.70
2018-06-27T02:39:17.153Z,14.65
2018-06-27T02:41:46.328Z,14.60
2018-06-27T02:44:15.489Z,14.56
2018-06-27T02:46:44.639Z,14.61
2018-06-27T02:49:13.799Z,14.54
2018-06-27T02:51:42.962Z,14.65
2018-06-27T02:54:12.135Z,14.49
2018-06-27T02:56:41.312Z,14.54
2018-06-27T02:59:10.478Z,14.50
2018-06-27T03:01:39.640Z,14.54
2018-06-27T03:04:08.869Z,14.62
2018-06-27T03:06:38.078Z,14.59
2018-06-27T03:09:09.513Z,14.70
2018-06-27T03:11:38.768Z,14.68
2018-06-27T03:14:07.962Z,14.67
2018-06-27T03:16:37.152Z,14.75
2018-06-27T03:19:06.349Z,14.76
2018-06-27T03:21:35.531Z,14.71
2018-06-27T03:24:04.722Z,14.83
2018-06-27T03:26:33.927Z,14.77
2018-06-27T03:29:03.113Z,14.78
2018-06-27T03:31:32.305Z,14.68
2018-06-27T03:34:01.497Z,14.66
2018-06-27T03:36:30.689Z,14.63
2018-06-27T03:38:59.938Z,14.50
2018-06-27T03:41:29.127Z,14.54
2018-06-27T03:43:58.316Z,14.58
2018-06-27T03:46:27.528Z,14.60
2018-06-27T03:48:56.739Z,14.54
2018-06-27T03:51:25.938Z,14.59
2018-06-27T03:53:58.583Z,14.63
2018-06-27T03:56:28.332Z,14.60
2018-06-27T03:58:57.587Z,14.55
2018-06-27T04:01:26.705Z,14.63
2018-06-27T04:03:56.290Z,14.68
2018-06-27T04:06:25.449Z,14.63
2018-06-27T04:08:54.609Z,14.74
2018-06-27T04:11:23.765Z,14.84
2018-06-27T04:13:52.944Z,14.86
2018-06-27T04:16:22.116Z,14.98
2018-06-27T04:18:51.292Z,15.09
2018-06-27T04:21:20.460Z,15.08
2018-06-27T04:23:49.613Z,15.18
2018-06-27T04:26:18.797Z,15.23
2018-06-27T04:28:47.956Z,15.16
2018-06-27T04:31:17.127Z,15.22
2018-06-27T04:33:46.284Z,15.20
2018-06-27T04:36:15.555Z,15.35
2018-06-27T04:38:44.641Z,15.19
2018-06-27T04:41:13.827Z,15.32
2018-06-27T04:43:42.998Z,15.32
2018-06-27T04:46:12.151Z,15.31
2018-06-27T04:48:41.316Z,15.36
2018-06-27T04:51:10.493Z,15.47
2018-06-27T04:53:39.653Z,15.49
2018-06-27T04:56:08.823Z,15.53
2018-06-27T04:58:38.008Z,15.62
2018-06-27T05:01:07.189Z,15.77
2018-06-27T05:03:36.380Z,15.92
2018-06-27T05:06:05.787Z,16.05
2018-06-27T05:08:34.947Z,16.18
2018-06-27T05:11:04.120Z,16.18
2018-06-27T05:13:33.279Z,16.27
2018-06-27T05:16:02.568Z,16.21
2018-06-27T05:18:31.634Z,16.29
2018-06-27T05:21:00.804Z,16.30
2018-06-27T05:23:29.964Z,16.31
2018-06-27T05:25:59.140Z,16.45
2018-06-27T05:28:28.292Z,16.44
2018-06-27T05:30:57.447Z,16.51
2018-06-27T05:33:26.604Z,16.61
2018-06-27T05:35:55.804Z,16.68
2018-06-27T05:38:24.953Z,16.70
2018-06-27T05:40:54.954Z,16.68
2018-06-27T05:43:24.069Z,16.89
2018-06-27T05:45:53.259Z,16.96
2018-06-27T05:48:22.434Z,16.87
2018-06-27T05:50:51.623Z,16.86
2018-06-27T05:53:20.790Z,16.92
2018-06-27T05:55:49.984Z,17.05
2018-06-27T05:58:19.187Z,17.08
2018-06-27T06:00:48.327Z,17.19
2018-06-27T06:03:17.525Z,17.32
2018-06-27T06:05:46.715Z,17.34
2018-06-27T06:08:15.978Z,17.37
2018-06-27T06:10:45.118Z,17.51
2018-06-27T06:13:14.419Z,17.47
2018-06-27T06:15:43.670Z,17.50
2018-06-27T06:18:12.986Z,17.55
2018-06-27T06:20:42.181Z,17.58
2018-06-27T06:23:11.396Z,17.58
2018-06-27T06:25:40.591Z,17.71
2018-06-27T06:28:09.806Z,17.79
2018-06-27T06:30:39.002Z,17.77
2018-06-27T06:33:08.283Z,17.86
2018-06-27T06:35:37.486Z,17.96
2018-06-27T06:38:06.775Z,18.02
2018-06-27T06:40:36.039Z,18.07
2018-06-27T06:43:05.224Z,17.99
2018-06-27T06:45:34.420Z,17.96
2018-06-27T06:48:03.630Z,18.01
2018-06-27T06:50:32.829Z,18.05
2018-06-27T06:53:02.067Z,18.17
2018-06-27T06:55:32.078Z,18.43
2018-06-27T06:58:01.284Z,18.47
2018-06-27T07:00:30.509Z,18.33
2018-06-27T07:02:59.762Z,18.48
2018-06-27T07:05:28.987Z,18.54
2018-06-27T07:07:58.187Z,18.59
2018-06-27T07:10:27.398Z,18.65
2018-06-27T07:12:56.589Z,18.75
2018-06-27T07:15:25.798Z,18.92
2018-06-27T07:17:55.073Z,18.80
2018-06-27T07:20:24.265Z,18.91
2018-06-27T07:22:53.478Z,19.10
2018-06-27T07:25:22.693Z,19.16
2018-06-27T07:27:51.888Z,18.97
2018-06-27T07:30:21.093Z,18.96
2018-06-27T07:32:50.324Z,19.15
2018-06-27T07:35:19.544Z,19.47
2018-06-27T07:37:48.759Z,19.47
2018-06-27T07:40:18.151Z,19.72
2018-06-27T07:42:47.354Z,19.88
2018-06-27T07:45:16.576Z,19.89
2018-06-27T07:47:45.797Z,20.19
2018-06-27T07:50:15.005Z,19.78
2018-06-27T07:52:44.204Z,19.90
2018-06-27T07:55:13.445Z,20.07
2018-06-27T07:57:42.598Z,20.29
2018-06-27T08:00:11.798Z,20.25
2018-06-27T08:02:41.000Z,20.25
2018-06-27T08:05:10.204Z,20.02
2018-06-27T08:07:39.390Z,20.26
2018-06-27T08:10:08.593Z,20.13
2018-06-27T08:12:37.798Z,20.08
2018-06-27T08:15:14.886Z,20.11
2018-06-27T08:17:44.541Z,19.93
2018-06-27T08:20:14.180Z,20.16
2018-06-27T08:22:44.017Z,20.48
2018-06-27T08:25:13.827Z,20.72
2018-06-27T08:27:43.459Z,20.70
2018-06-27T08:30:13.134Z,20.81
2018-06-27T08:32:42.853Z,20.93
2018-06-27T08:35:14.155Z,20.91
2018-06-27T08:37:43.771Z,20.87
2018-06-27T08:40:13.354Z,21.10
2018-06-27T08:42:42.990Z,21.12
2018-06-27T08:45:12.545Z,21.29
2018-06-27T08:47:42.128Z,21.68
2018-06-27T08:50:11.832Z,21.58
2018-06-27T08:52:41.455Z,22.01
2018-06-27T08:55:12.311Z,22.03
2018-06-27T08:57:43.067Z,21.98
2018-06-27T09:00:12.766Z,21.98
2018-06-27T09:02:42.476Z,22.12
2018-06-27T09:05:12.293Z,22.42
2018-06-27T09:07:44.476Z,22.03
2018-06-27T09:10:14.105Z,21.93
2018-06-27T09:12:43.820Z,21.80
2018-06-27T09:15:13.669Z,22.20
2018-06-27T09:17:43.228Z,22.24
2018-06-27T09:20:12.916Z,22.33
2018-06-27T09:22:43.711Z,22.75
2018-06-27T09:25:14.422Z,22.66
2018-06-27T09:27:44.091Z,22.85
2018-06-27T09:30:13.834Z,21.99
2018-06-27T09:32:44.798Z,22.30
2018-06-27T09:35:14.453Z,22.43
2018-06-27T09:37:44.026Z,22.29
2018-06-27T09:40:13.564Z,22.59
2018-06-27T09:42:43.198Z,22.27
2018-06-27T09:45:12.843Z,21.97
2018-06-27T09:47:42.357Z,21.76
2018-06-27T09:50:12.680Z,22.07
2018-06-27T09:52:42.280Z,22.74
2018-06-27T09:55:13.177Z,22.88
2018-06-27T09:57:43.412Z,21.79
2018-06-27T10:00:18.213Z,21.95
2018-06-27T10:02:47.713Z,22.12
2018-06-27T10:05:17.339Z,22.48
2018-06-27T10:07:47.843Z,22.28
2018-06-27T10:10:18.421Z,22.44
2018-06-27T10:12:48.140Z,22.62
2018-06-27T10:15:21.440Z,22.84
2018-06-27T10:17:50.976Z,23.74
2018-06-27T10:20:20.669Z,23.42
2018-06-27T10:22:50.323Z,23.59
2018-06-27T10:25:20.011Z,23.15
2018-06-27T10:27:49.583Z,23.77
2018-06-27T10:30:19.461Z,24.75
2018-06-27T10:32:49.331Z,24.20
2018-06-27T10:35:19.073Z,24.69
2018-06-27T10:37:48.744Z,24.50
2018-06-27T10:40:18.374Z,24.93
2018-06-27T10:42:48.008Z,25.15
2018-06-27T10:45:17.672Z,24.99
2018-06-27T10:47:47.407Z,24.12
2018-06-27T10:50:17.270Z,25.23
2018-06-27T10:52:47.071Z,25.36
2018-06-27T10:55:19.607Z,25.13
2018-06-27T10:57:49.568Z,25.24
2018-06-27T11:00:19.333Z,24.33
2018-06-27T11:02:48.860Z,23.26
2018-06-27T11:05:19.478Z,23.30
2018-06-27T11:07:49.129Z,23.56
2018-06-27T11:10:18.845Z,24.22
2018-06-27T11:12:48.444Z,23.64
2018-06-27T11:15:18.165Z,24.78
2018-06-27T11:17:47.647Z,24.78
2018-06-27T11:20:17.363Z,24.11
2018-06-27T11:22:46.941Z,25.10
2018-06-27T11:25:16.632Z,25.10
2018-06-27T11:27:46.328Z,24.92
2018-06-27T11:30:16.734Z,23.85
2018-06-27T11:32:46.472Z,22.75
2018-06-27T11:35:16.113Z,24.12
2018-06-27T11:37:45.895Z,25.37
2018-06-27T11:40:15.537Z,26.53
2018-06-27T11:42:45.296Z,23.88
2018-06-27T11:45:14.953Z,23.54
2018-06-27T11:47:44.554Z,22.85
2018-06-27T11:50:14.375Z,25.41
2018-06-27T11:52:44.092Z,26.84
2018-06-27T11:55:15.053Z,26.67
2018-06-27T11:57:45.206Z,26.86
2018-06-27T12:00:14.891Z,24.83
2018-06-27T12:02:46.882Z,26.20
2018-06-27T12:05:23.118Z,27.04
2018-06-27T12:07:54.908Z,25.92
2018-06-27T12:10:24.761Z,24.40
2018-06-27T12:12:54.495Z,24.31
2018-06-27T12:15:24.140Z,24.58
2018-06-27T12:17:53.787Z,26.26
2018-06-27T12:20:23.456Z,26.72
2018-06-27T12:22:53.098Z,26.51
2018-06-27T12:25:22.699Z,27.15
2018-06-27T12:27:52.415Z,27.18
2018-06-27T12:30:24.184Z,25.43
2018-06-27T12:32:54.056Z,24.11
2018-06-27T12:35:23.705Z,23.60
2018-06-27T12:37:53.378Z,24.62
2018-06-27T12:40:22.923Z,27.06
2018-06-27T12:42:52.438Z,26.81
2018-06-27T12:45:21.855Z,27.14
2018-06-27T12:47:51.355Z,26.41
2018-06-27T12:50:20.915Z,25.68
2018-06-27T12:52:50.418Z,25.47
2018-06-27T12:55:20.129Z,26.88
2018-06-27T12:57:56.288Z,27.49
2018-06-27T13:00:25.923Z,28.02
2018-06-27T13:02:55.431Z,28.75
2018-06-27T13:05:25.038Z,27.78
2018-06-27T13:07:54.596Z,26.12
2018-06-27T13:10:24.111Z,25.56
2018-06-27T13:12:53.686Z,24.53
2018-06-27T13:15:23.362Z,26.37
2018-06-27T13:17:52.793Z,26.79
2018-06-27T13:20:22.354Z,26.79
2018-06-27T13:22:51.978Z,27.80
2018-06-27T13:25:21.592Z,28.15
2018-06-27T13:27:51.074Z,28.06
2018-06-27T13:30:20.517Z,28.91
2018-06-27T13:32:50.171Z,28.28
2018-06-27T13:35:19.719Z,27.83
2018-06-27T13:37:49.347Z,28.52
2018-06-27T13:40:18.943Z,28.49
2018-06-27T13:42:48.503Z,26.34
2018-06-27T13:45:17.960Z,26.71
2018-06-27T13:47:47.358Z,28.70
2018-06-27T13:50:16.739Z,29.19
2018-06-27T13:52:46.312Z,29.31
2018-06-27T13:55:15.882Z,29.52
2018-06-27T13:57:45.543Z,29.90
2018-06-27T14:00:14.932Z,29.40
2018-06-27T14:02:44.497Z,29.50
2018-06-27T14:05:14.014Z,28.69
2018-06-27T14:07:43.639Z,28.83
2018-06-27T14:10:13.202Z,26.76
2018-06-27T14:12:42.745Z,26.23
2018-06-27T14:15:12.290Z,25.65
2018-06-27T14:17:41.822Z,26.68
2018-06-27T14:20:11.348Z,28.30
2018-06-27T14:22:40.958Z,27.68
2018-06-27T14:25:10.346Z,28.26
2018-06-27T14:27:39.674Z,29.08
2018-06-27T14:30:09.060Z,28.25
2018-06-27T14:32:38.394Z,26.58
2018-06-27T14:35:07.854Z,25.68
2018-06-27T14:37:37.279Z,25.48
2018-06-27T14:40:06.616Z,25.49
2018-06-27T14:42:35.924Z,26.82
2018-06-27T14:45:05.319Z,28.16
2018-06-27T14:47:34.627Z,28.24
2018-06-27T14:50:03.945Z,27.83
2018-06-27T14:52:33.258Z,29.06
2018-06-27T14:55:02.622Z,29.45
2018-06-27T14:57:31.952Z,27.92
2018-06-27T15:00:01.274Z,27.74
2018-06-27T15:02:30.606Z,28.15
2018-06-27T15:04:59.892Z,29.98
2018-06-27T15:07:29.408Z,28.50
2018-06-27T15:09:58.743Z,26.87
2018-06-27T15:12:28.091Z,25.66
2018-06-27T15:14:57.445Z,25.51
2018-06-27T15:17:26.754Z,25.09
2018-06-27T15:19:56.349Z,25.71
2018-06-27T15:22:25.843Z,25.10
2018-06-27T15:24:55.106Z,27.17
2018-06-27T15:27:24.391Z,26.18
2018-06-27T15:29:53.723Z,25.50
2018-06-27T15:32:23.016Z,25.87
2018-06-27T15:34:52.339Z,26.85
2018-06-27T15:37:21.683Z,29.34
2018-06-27T15:39:50.982Z,28.73
2018-06-27T15:42:20.215Z,28.68
2018-06-27T15:44:49.425Z,28.61
2018-06-27T15:47:18.684Z,26.82
2018-06-27T15:49:48.009Z,25.67
2018-06-27T15:52:17.272Z,24.82
2018-06-27T15:54:46.692Z,24.95
2018-06-27T15:57:15.976Z,26.78
2018-06-27T15:59:52.424Z,27.92
2018-06-27T16:02:22.249Z,26.85
2018-06-27T16:04:51.497Z,25.71
2018-06-27T16:07:20.913Z,25.14
2018-06-27T16:09:51.216Z,27.09
2018-06-27T16:12:20.477Z,28.26
2018-06-27T16:14:49.722Z,29.26
2018-06-27T16:17:19.181Z,27.99
2018-06-27T16:19:48.211Z,28.02
2018-06-27T16:22:17.456Z,28.08
2018-06-27T16:24:46.692Z,29.30
2018-06-27T16:27:16.009Z,29.50
2018-06-27T16:29:45.291Z,28.59
2018-06-27T16:32:14.563Z,29.00
2018-06-27T16:34:43.798Z,29.80
2018-06-27T16:37:13.099Z,29.79
2018-06-27T16:39:42.304Z,29.56
2018-06-27T16:42:11.564Z,28.93
2018-06-27T16:44:40.987Z,28.77
2018-06-27T16:47:10.265Z,28.66
2018-06-27T16:49:39.481Z,27.00
2018-06-27T16:52:08.833Z,25.43
2018-06-27T16:54:37.959Z,24.96
2018-06-27T16:57:07.247Z,24.89
2018-06-27T16:59:36.530Z,24.56
2018-06-27T17:02:05.786Z,24.37
2018-06-27T17:04:35.038Z,24.19
2018-06-27T17:07:04.334Z,23.85
2018-06-27T17:09:33.501Z,23.75
2018-06-27T17:12:02.732Z,23.92
2018-06-27T17:14:31.929Z,26.49
2018-06-27T17:17:01.143Z,26.77
2018-06-27T17:19:30.359Z,27.58
2018-06-27T17:21:59.881Z,27.59
2018-06-27T17:24:29.104Z,26.68
2018-06-27T17:26:58.303Z,26.84
2018-06-27T17:29:27.509Z,26.39
2018-06-27T17:31:56.721Z,27.15
2018-06-27T17:34:25.960Z,26.03
2018-06-27T17:36:55.160Z,26.22
2018-06-27T17:39:30.625Z,26.33
2018-06-27T17:41:59.869Z,26.10
2018-06-27T17:44:29.094Z,26.52
2018-06-27T17:46:58.325Z,26.53
2018-06-27T17:49:27.536Z,26.23
2018-06-27T17:51:56.728Z,26.15
2018-06-27T17:54:25.943Z,25.77
2018-06-27T17:56:55.181Z,25.75
2018-06-27T17:59:24.397Z,25.38
2018-06-27T18:01:53.601Z,25.74
2018-06-27T18:04:22.821Z,25.75
2018-06-27T18:06:52.046Z,25.13
2018-06-27T18:09:21.237Z,24.89
2018-06-27T18:11:50.472Z,26.15
2018-06-27T18:14:19.668Z,24.48
2018-06-27T18:16:48.910Z,23.27
2018-06-27T18:19:18.131Z,22.96
2018-06-27T18:21:47.340Z,22.87
2018-06-27T18:24:16.556Z,22.78
2018-06-27T18:26:45.849Z,22.52
2018-06-27T18:29:16.152Z,22.37
2018-06-27T18:31:46.624Z,22.42
2018-06-27T18:34:17.379Z,22.31
2018-06-27T18:36:48.270Z,22.22
2018-06-27T18:39:18.055Z,22.00
2018-06-27T18:41:48.667Z,22.01
2018-06-27T18:44:17.953Z,21.83
2018-06-27T18:46:47.274Z,21.82
2018-06-27T18:49:16.728Z,21.69
2018-06-27T18:51:46.055Z,21.74
2018-06-27T18:54:15.372Z,21.50
2018-06-27T18:56:44.778Z,21.35
2018-06-27T18:59:14.193Z,21.31
2018-06-27T19:01:43.717Z,21.30
2018-06-27T19:04:13.294Z,21.21
2018-06-27T19:06:42.944Z,21.15
2018-06-27T19:09:13.217Z,21.03
2018-06-27T19:11:43.060Z,20.90
2018-06-27T19:14:12.589Z,20.88
2018-06-27T19:16:42.135Z,20.80
2018-06-27T19:19:11.603Z,20.81
2018-06-27T19:21:41.121Z,20.68
2018-06-27T19:24:10.582Z,20.59
2018-06-27T19:26:40.049Z,20.60
2018-06-27T19:29:09.394Z,20.42
2018-06-27T19:31:38.722Z,20.40
2018-06-27T19:34:08.024Z,20.40
2018-06-27T19:36:37.321Z,20.32
2018-06-27T19:39:09.995Z,20.21
2018-06-27T19:41:39.622Z,20.12
2018-06-27T19:44:09.702Z,20.13
2018-06-27T19:46:38.942Z,19.99
2018-06-27T19:49:08.184Z,19.91
2018-06-27T19:51:37.498Z,19.81
2018-06-27T19:54:06.665Z,19.82
2018-06-27T19:56:36.003Z,19.78
2018-06-27T19:59:05.336Z,19.79
2018-06-27T20:01:34.652Z,19.65
2018-06-27T20:04:04.005Z,19.57
2018-06-27T20:06:33.290Z,19.50
2018-06-27T20:09:02.612Z,19.40
2018-06-27T20:11:31.893Z,19.34
2018-06-27T20:14:01.196Z,19.22
2018-06-27T20:16:30.438Z,19.14
2018-06-27T20:18:59.683Z,19.08
2018-06-27T20:21:29.027Z,18.98
2018-06-27T20:23:58.220Z,18.90
2018-06-27T20:26:27.505Z,18.78
2018-06-27T20:28:56.813Z,18.70
2018-06-27T20:31:26.125Z,18.60
2018-06-27T20:33:55.453Z,18.36
2018-06-27T20:36:24.743Z,18.20
2018-06-27T20:38:53.947Z,18.23
2018-06-27T20:41:23.140Z,18.21
2018-06-27T20:43:52.344Z,18.12
2018-06-27T20:46:21.534Z,18.06
2018-06-27T20:48:50.729Z,18.04
2018-06-27T20:51:19.892Z,17.98
2018-06-27T20:53:49.104Z,17.89
2018-06-27T20:56:18.295Z,17.81
2018-06-27T20:58:47.500Z,17.65
2018-06-27T21:01:16.762Z,17.65
2018-06-27T21:03:46.190Z,17.55
2018-06-27T21:06:15.432Z,17.54
2018-06-27T21:08:44.693Z,17.51
2018-06-27T21:11:13.941Z,17.56
2018-06-27T21:13:43.119Z,17.60
2018-06-27T21:16:12.343Z,17.58
2018-06-27T21:18:41.574Z,17.51
2018-06-27T21:21:10.817Z,17.57
2018-06-27T21:23:40.009Z,17.50
2018-06-27T21:26:09.215Z,17.54
2018-06-27T21:28:38.424Z,17.50
2018-06-27T21:31:07.657Z,17.47
2018-06-27T21:33:36.846Z,17.44
2018-06-27T21:36:06.180Z,17.46
2018-06-27T21:38:35.377Z,17.40
2018-06-27T21:41:04.553Z,17.39
2018-06-27T21:43:33.734Z,17.34
2018-06-27T21:46:02.884Z,17.30
2018-06-27T21:48:32.029Z,17.20
2018-06-27T21:51:01.208Z,17.10
2018-06-27T21:53:30.363Z,17.04
2018-06-27T21:55:59.527Z,16.97
2018-06-27T21:58:28.700Z,16.83
2018-06-27T22:00:57.865Z,16.78
2018-06-27T22:03:27.021Z,16.72
2018-06-27T22:05:56.183Z,16.66
2018-06-27T22:08:25.348Z,16.55
2018-06-27T22:10:54.571Z,16.50
2018-06-27T22:13:23.853Z,16.40
2018-06-27T22:15:53.053Z,16.24
2018-06-27T22:18:22.252Z,16.16
2018-06-27T22:20:51.430Z,16.16
2018-06-27T22:23:20.932Z,16.17
2018-06-27T22:25:50.116Z,16.10
2018-06-27T22:28:19.384Z,16.06
2018-06-27T22:30:48.586Z,16.02
2018-06-27T22:33:17.788Z,15.93
2018-06-27T22:35:46.996Z,15.87
2018-06-27T22:38:16.224Z,15.76
2018-06-27T22:40:45.406Z,15.66
2018-06-27T22:43:14.608Z,15.57
2018-06-27T22:45:43.804Z,15.44
2018-06-27T22:48:13.001Z,15.47
2018-06-27T22:50:42.208Z,15.42
2018-06-27T22:53:11.412Z,15.45
2018-06-27T22:55:40.605Z,15.45
2018-06-27T22:58:09.793Z,15.40
2018-06-27T23:00:38.990Z,15.39
2018-06-27T23:03:08.194Z,15.38
2018-06-27T23:05:37.405Z,15.27
2018-06-27T23:08:06.750Z,15.43
2018-06-27T23:10:35.913Z,15.92
2018-06-27T23:13:05.089Z,15.95
2018-06-27T23:15:34.248Z,15.97
2018-06-27T23:18:03.520Z,15.98
2018-06-27T23:32:20.489Z,16.37
2018-06-27T23:34:49.645Z,16.30
2018-06-27T23:37:18.792Z,16.22
2018-06-27T23:39:47.952Z,16.26
2018-06-27T23:42:17.113Z,16.21
2018-06-27T23:44:46.460Z,16.14
2018-06-27T23:47:15.686Z,16.09
2018-06-27T23:49:45.212Z,16.06
2018-06-27T23:52:14.369Z,16.07
2018-06-27T23:54:43.529Z,15.98
2018-06-27T23:57:12.835Z,15.98
2018-06-27T23:59:41.985Z,16.00
